Time;durP1;ratioP1;P1;durP2;ratioP2;P2;SDS_P1;SDS_P2;PMS_P1;PMS_P2;Temp;Humidity;BMP_temperature;BMP_pressure;BME280_temperature;BME280_humidity;BME280_pressure;Samples;Min_cycle;Max_cycle;Signal;HPM_P1;HPM_P2
2023/09/12 00:00:05;;;;;;;6.17;2.07;;;;;;;;;;6181796;23;20784;-58
2023/09/12 00:02:33;;;;;;;6.78;2.15;;;;;;;;;;6189251;23;20247;-58
2023/09/12 00:05:01;;;;;;;5.57;2.00;;;;;;;;;;6175326;23;20017;-53
2023/09/12 00:07:30;;;;;;;5.93;1.88;;;;;;;;;;6186714;23;20096;-59
2023/09/12 00:09:58;;;;;;;5.25;2.13;;;;;;;;;;6186418;23;20112;-58
2023/09/12 00:12:25;;;;;;;5.67;2.33;;;;;;;;;;6181206;23;20020;-58
2023/09/12 00:14:54;;;;;;;6.20;2.28;;;;;;;;;;6188642;23;20092;-58
2023/09/12 00:17:22;;;;;;;6.45;1.95;;;;;;;;;;6180512;23;20435;-58
2023/09/12 00:19:50;;;;;;;4.57;2.08;;;;;;;;;;6185507;23;20024;-58
2023/09/12 00:22:20;;;;;;;8.25;2.25;;;;;;;;;;6189120;23;20402;-58
2023/09/12 00:24:48;;;;;;;7.57;2.40;;;;;;;;;;6173952;23;20025;-58
2023/09/12 00:27:16;;;;;;;6.88;2.38;;;;;;;;;;6188075;23;20016;-58
2023/09/12 00:29:44;;;;;;;8.68;2.42;;;;;;;;;;6176290;23;20051;-58
2023/09/12 00:32:13;;;;;;;5.13;2.17;;;;;;;;;;6190354;23;20019;-58
2023/09/12 00:34:41;;;;;;;6.43;2.55;;;;;;;;;;6179676;23;20020;-57
2023/09/12 00:37:09;;;;;;;5.27;2.20;;;;;;;;;;6190245;23;20479;-58
2023/09/12 00:39:37;;;;;;;6.15;1.98;;;;;;;;;;6185309;23;20016;-58
2023/09/12 00:42:07;;;;;;;6.80;2.67;;;;;;;;;;6185865;23;20021;-58
2023/09/12 00:44:35;;;;;;;6.22;2.42;;;;;;;;;;6189828;23;20108;-58
2023/09/12 00:47:03;;;;;;;6.28;2.15;;;;;;;;;;6151228;23;20612;-58
2023/09/12 00:49:33;;;;;;;6.70;2.40;;;;;;;;;;6188428;23;20016;-58
2023/09/12 00:52:01;;;;;;;6.82;1.98;;;;;;;;;;6173436;23;20024;-56
2023/09/12 00:54:30;;;;;;;8.27;2.25;;;;;;;;;;6187400;23;20082;-57
2023/09/12 00:56:58;;;;;;;6.53;2.00;;;;;;;;;;6174482;23;20051;-57
2023/09/12 00:59:26;;;;;;;7.13;2.40;;;;;;;;;;6190718;23;20043;-57
2023/09/12 01:01:54;;;;;;;6.73;2.13;;;;;;;;;;6175661;23;20017;-57
2023/09/12 01:04:22;;;;;;;6.47;2.13;;;;;;;;;;6191669;23;20459;-57
2023/09/12 01:07:05;;;;;;;6.47;2.17;;;;;;;;;;6186060;23;20012;-57
2023/09/12 01:09:34;;;;;;;5.65;2.30;;;;;;;;;;6142431;23;20047;-57
2023/09/12 01:12:02;;;;;;;7.47;2.45;;;;;;;;;;6182087;23;20020;-56
2023/09/12 01:14:30;;;;;;;6.70;2.37;;;;;;;;;;6157535;23;20325;-57
2023/09/12 01:16:59;;;;;;;8.50;2.35;;;;;;;;;;6181464;23;20067;-57
2023/09/12 01:19:27;;;;;;;8.00;2.50;;;;;;;;;;6180774;23;20362;-57
2023/09/12 01:22:04;;;;;;;5.03;2.20;;;;;;;;;;6187664;23;20012;-57
2023/09/12 01:24:53;;;;;;;7.80;2.17;;;;;;;;;;6176343;23;20013;-57
2023/09/12 01:27:23;;;;;;;6.13;2.20;;;;;;;;;;6178471;23;20472;-56
2023/09/12 01:29:54;;;;;;;6.93;2.28;;;;;;;;;;6184850;23;20037;-57
2023/09/12 01:32:21;;;;;;;6.10;2.65;;;;;;;;;;6179070;23;20630;-56
2023/09/12 01:34:50;;;;;;;9.85;2.67;;;;;;;;;;6187336;23;20071;-57
2023/09/12 01:37:17;;;;;;;8.57;2.28;;;;;;;;;;6183501;23;20012;-57
2023/09/12 01:39:45;;;;;;;7.90;2.60;;;;;;;;;;6188981;23;20016;-57
2023/09/12 01:42:15;;;;;;;5.88;2.47;;;;;;;;;;6184873;23;20077;-57
2023/09/12 01:44:45;;;;;;;8.18;2.97;;;;;;;;;;6179936;23;20375;-59
2023/09/12 01:47:14;;;;;;;9.00;2.90;;;;;;;;;;6186010;23;20017;-57
2023/09/12 01:49:43;;;;;;;6.38;2.47;;;;;;;;;;6166980;23;20016;-57
2023/09/12 01:52:11;;;;;;;7.03;2.63;;;;;;;;;;6182060;23;20024;-57
2023/09/12 01:54:43;;;;;;;6.63;2.63;;;;;;;;;;6189661;23;20059;-58
2023/09/12 01:57:11;;;;;;;7.00;2.25;;;;;;;;;;6194600;23;20021;-57
2023/09/12 01:59:39;;;;;;;8.15;2.90;;;;;;;;;;6169780;23;20021;-58
2023/09/12 02:02:08;;;;;;;7.22;2.67;;;;;;;;;;6173607;23;20120;-57
2023/09/12 02:04:36;;;;;;;7.20;2.30;;;;;;;;;;6168532;23;20398;-57
2023/09/12 02:07:04;;;;;;;7.13;2.47;;;;;;;;;;6193074;23;20334;-57
2023/09/12 02:09:31;;;;;;;8.23;2.70;;;;;;;;;;6200892;23;20023;-57
2023/09/12 02:11:59;;;;;;;8.25;2.47;;;;;;;;;;6186918;23;20279;-57
2023/09/12 02:14:27;;;;;;;6.93;2.40;;;;;;;;;;6181455;23;20023;-57
2023/09/12 02:16:55;;;;;;;6.20;2.50;;;;;;;;;;6195947;23;20024;-57
2023/09/12 02:19:24;;;;;;;7.65;3.00;;;;;;;;;;6194800;23;20020;-57
2023/09/12 02:21:52;;;;;;;6.40;2.50;;;;;;;;;;6186079;23;20020;-54
2023/09/12 02:24:21;;;;;;;6.68;2.53;;;;;;;;;;6193249;23;20016;-58
2023/09/12 02:26:49;;;;;;;10.00;3.22;;;;;;;;;;6189465;23;20013;-58
2023/09/12 02:29:16;;;;;;;8.37;3.07;;;;;;;;;;6187831;23;20017;-58
2023/09/12 02:31:44;;;;;;;7.57;3.10;;;;;;;;;;6186952;23;20035;-57
2023/09/12 02:34:12;;;;;;;9.00;3.38;;;;;;;;;;6191895;23;20032;-58
2023/09/12 02:36:41;;;;;;;7.07;2.90;;;;;;;;;;6187523;23;20024;-58
2023/09/12 02:39:09;;;;;;;9.13;3.90;;;;;;;;;;6175549;23;20127;-58
2023/09/12 02:41:37;;;;;;;7.93;3.20;;;;;;;;;;6188179;23;20017;-58
2023/09/12 02:44:05;;;;;;;8.38;2.95;;;;;;;;;;6183699;23;20012;-57
2023/09/12 02:46:33;;;;;;;8.80;3.28;;;;;;;;;;6189214;23;20019;-58
2023/09/12 02:49:00;;;;;;;7.32;2.92;;;;;;;;;;6191294;23;20079;-57
2023/09/12 02:51:29;;;;;;;7.32;3.55;;;;;;;;;;6188808;23;20020;-58
2023/09/12 02:53:58;;;;;;;9.30;3.47;;;;;;;;;;6160127;23;20017;-57
2023/09/12 02:56:26;;;;;;;9.85;3.28;;;;;;;;;;6189332;23;20019;-58
2023/09/12 02:58:58;;;;;;;9.30;4.28;;;;;;;;;;6185686;23;20051;-58
2023/09/12 03:01:27;;;;;;;10.02;3.42;;;;;;;;;;6176995;23;20024;-58
2023/09/12 03:03:55;;;;;;;9.57;4.10;;;;;;;;;;6192575;23;20017;-57
2023/09/12 03:06:24;;;;;;;10.20;3.80;;;;;;;;;;6186715;23;20016;-58
2023/09/12 03:08:51;;;;;;;10.48;3.70;;;;;;;;;;6194362;23;20040;-57
2023/09/12 03:11:20;;;;;;;7.05;3.72;;;;;;;;;;6184349;23;20071;-57
2023/09/12 03:13:48;;;;;;;8.52;3.70;;;;;;;;;;6189749;23;20447;-57
2023/09/12 03:16:16;;;;;;;9.05;3.80;;;;;;;;;;6183242;23;20016;-58
2023/09/12 03:18:44;;;;;;;9.83;3.97;;;;;;;;;;6192158;23;20099;-58
2023/09/12 03:21:13;;;;;;;10.05;3.70;;;;;;;;;;6184251;23;20021;-58
2023/09/12 03:23:41;;;;;;;8.73;3.72;;;;;;;;;;6192405;23;20020;-58
2023/09/12 03:26:09;;;;;;;7.03;3.55;;;;;;;;;;6190717;23;20043;-58
2023/09/12 03:28:38;;;;;;;10.70;3.78;;;;;;;;;;6190387;23;20012;-57
2023/09/12 03:31:07;;;;;;;9.73;3.30;;;;;;;;;;6190796;23;20082;-58
2023/09/12 03:33:36;;;;;;;10.60;4.00;;;;;;;;;;6180985;23;20248;-58
2023/09/12 03:36:04;;;;;;;9.45;3.55;;;;;;;;;;6187720;23;20875;-58
2023/09/12 03:38:31;;;;;;;10.90;3.42;;;;;;;;;;6185109;23;20013;-57
2023/09/12 03:40:59;;;;;;;8.45;3.42;;;;;;;;;;6191234;23;20017;-58
2023/09/12 03:43:27;;;;;;;9.80;4.60;;;;;;;;;;6183363;23;20020;-58
2023/09/12 03:45:56;;;;;;;8.75;3.83;;;;;;;;;;6187257;23;20066;-58
2023/09/12 03:48:24;;;;;;;9.57;3.70;;;;;;;;;;6184323;23;20399;-58
2023/09/12 03:50:52;;;;;;;9.68;4.20;;;;;;;;;;6189097;23;20091;-57
2023/09/12 03:53:22;;;;;;;8.38;3.53;;;;;;;;;;6167796;23;20048;-57
2023/09/12 03:55:50;;;;;;;10.43;4.00;;;;;;;;;;6188950;23;20023;-58
2023/09/12 03:58:18;;;;;;;8.55;3.78;;;;;;;;;;6193750;23;20514;-57
2023/09/12 04:00:47;;;;;;;10.05;3.97;;;;;;;;;;6168074;23;20016;-58
2023/09/12 04:03:16;;;;;;;9.10;4.25;;;;;;;;;;6193885;23;20052;-58
2023/09/12 04:05:46;;;;;;;10.05;4.30;;;;;;;;;;6188824;23;20040;-57
2023/09/12 04:08:14;;;;;;;9.57;4.20;;;;;;;;;;6194040;23;20031;-58
2023/09/12 04:10:42;;;;;;;9.38;5.00;;;;;;;;;;6169042;23;20021;-58
2023/09/12 04:13:10;;;;;;;10.55;4.43;;;;;;;;;;6186115;23;20042;-57
2023/09/12 04:15:39;;;;;;;9.27;4.32;;;;;;;;;;6192840;23;20071;-57
2023/09/12 04:18:07;;;;;;;8.73;4.05;;;;;;;;;;6185101;23;20338;-57
2023/09/12 04:20:36;;;;;;;12.63;3.97;;;;;;;;;;6186281;23;20095;-58
2023/09/12 04:23:04;;;;;;;7.93;3.85;;;;;;;;;;6196343;23;20047;-57
2023/09/12 04:25:33;;;;;;;11.20;4.20;;;;;;;;;;6181975;23;20016;-57
2023/09/12 04:28:01;;;;;;;9.60;4.38;;;;;;;;;;6192660;23;20308;-58
2023/09/12 04:30:28;;;;;;;9.13;4.53;;;;;;;;;;6193286;23;20020;-58
2023/09/12 04:32:56;;;;;;;11.80;4.07;;;;;;;;;;6181690;23;20521;-58
2023/09/12 04:35:25;;;;;;;9.35;4.45;;;;;;;;;;6196263;23;20512;-58
2023/09/12 04:37:54;;;;;;;13.25;4.80;;;;;;;;;;6187855;23;20027;-58
2023/09/12 04:40:21;;;;;;;8.48;4.20;;;;;;;;;;6190598;23;20016;-57
2023/09/12 04:42:49;;;;;;;10.13;4.20;;;;;;;;;;6188023;23;20321;-58
2023/09/12 04:45:17;;;;;;;11.50;4.67;;;;;;;;;;6184530;23;20038;-57
2023/09/12 04:47:45;;;;;;;9.93;5.20;;;;;;;;;;6187114;23;20059;-58
2023/09/12 04:50:13;;;;;;;12.38;4.80;;;;;;;;;;6183026;23;20099;-58
2023/09/12 04:52:41;;;;;;;10.48;4.75;;;;;;;;;;6185462;23;20020;-58
2023/09/12 04:55:10;;;;;;;13.57;4.65;;;;;;;;;;6178345;23;20372;-57
2023/09/12 04:57:40;;;;;;;12.13;5.20;;;;;;;;;;6181238;23;20020;-58
2023/09/12 05:00:10;;;;;;;12.00;4.70;;;;;;;;;;6186831;23;20128;-58
2023/09/12 05:02:40;;;;;;;9.45;4.70;;;;;;;;;;6185079;23;20032;-58
2023/09/12 05:05:07;;;;;;;9.73;4.30;;;;;;;;;;6188223;23;20071;-58
2023/09/12 05:07:35;;;;;;;9.77;4.30;;;;;;;;;;6160838;23;20478;-58
2023/09/12 05:10:03;;;;;;;12.23;4.63;;;;;;;;;;6180208;23;20428;-58
2023/09/12 05:12:32;;;;;;;12.80;5.22;;;;;;;;;;6184793;23;20021;-58
2023/09/12 05:15:00;;;;;;;12.10;4.43;;;;;;;;;;6188646;23;20457;-58
2023/09/12 05:17:28;;;;;;;12.10;4.90;;;;;;;;;;6182928;23;20127;-58
2023/09/12 05:19:56;;;;;;;11.63;5.43;;;;;;;;;;6187214;23;20347;-58
2023/09/12 05:22:23;;;;;;;9.70;4.50;;;;;;;;;;6181859;23;20017;-58
2023/09/12 05:24:51;;;;;;;15.32;4.95;;;;;;;;;;6189105;23;20016;-58
2023/09/12 05:27:19;;;;;;;10.50;4.03;;;;;;;;;;6180223;23;20013;-58
2023/09/12 05:29:48;;;;;;;10.65;4.85;;;;;;;;;;6184950;23;20017;-59
2023/09/12 05:32:16;;;;;;;11.05;4.70;;;;;;;;;;6178193;23;20082;-58
2023/09/12 05:34:45;;;;;;;13.07;4.63;;;;;;;;;;6184348;23;20035;-58
2023/09/12 05:37:12;;;;;;;9.10;4.40;;;;;;;;;;6182461;23;20542;-58
2023/09/12 05:39:42;;;;;;;10.93;4.35;;;;;;;;;;6186955;23;20043;-58
2023/09/12 05:42:09;;;;;;;9.90;5.25;;;;;;;;;;6185754;23;20514;-59
2023/09/12 05:44:37;;;;;;;10.18;4.93;;;;;;;;;;6182287;23;20020;-58
2023/09/12 05:47:06;;;;;;;10.27;4.67;;;;;;;;;;6186378;23;20023;-58
2023/09/12 05:49:35;;;;;;;12.73;4.97;;;;;;;;;;6184477;23;20017;-58
2023/09/12 05:52:03;;;;;;;12.77;4.68;;;;;;;;;;6189979;23;20431;-58
2023/09/12 05:54:31;;;;;;;10.82;4.32;;;;;;;;;;6178150;23;20122;-58
2023/09/12 05:56:58;;;;;;;10.13;4.53;;;;;;;;;;6186210;23;20016;-58
2023/09/12 05:59:26;;;;;;;13.53;5.07;;;;;;;;;;6171714;23;20016;-57
2023/09/12 06:01:55;;;;;;;11.05;4.95;;;;;;;;;;6140903;23;20079;-58
2023/09/12 06:04:24;;;;;;;9.65;5.18;;;;;;;;;;6182408;23;20342;-58
2023/09/12 06:06:51;;;;;;;11.73;5.40;;;;;;;;;;6186487;23;20096;-58
2023/09/12 06:09:21;;;;;;;14.18;5.30;;;;;;;;;;6196460;23;20036;-58
2023/09/12 06:11:48;;;;;;;11.87;5.20;;;;;;;;;;6174349;23;20315;-58
2023/09/12 06:14:18;;;;;;;11.45;5.75;;;;;;;;;;6189352;23;20028;-58
2023/09/12 06:16:46;;;;;;;9.60;4.85;;;;;;;;;;6173639;23;20020;-58
2023/09/12 06:19:14;;;;;;;11.32;4.90;;;;;;;;;;6188729;23;20020;-58
2023/09/12 06:21:43;;;;;;;10.40;5.30;;;;;;;;;;6177367;23;20044;-58
2023/09/12 06:24:13;;;;;;;10.43;4.97;;;;;;;;;;6141221;23;20016;-59
2023/09/12 06:26:41;;;;;;;11.57;5.65;;;;;;;;;;6183302;23;20445;-59
2023/09/12 06:29:09;;;;;;;11.25;5.20;;;;;;;;;;6180861;23;20042;-58
2023/09/12 06:31:41;;;;;;;12.55;5.05;;;;;;;;;;6180825;23;20375;-58
2023/09/12 06:34:08;;;;;;;10.57;5.07;;;;;;;;;;6184506;23;20055;-58
2023/09/12 06:36:36;;;;;;;12.77;5.43;;;;;;;;;;6183754;23;20013;-58
2023/09/12 06:39:05;;;;;;;12.82;5.35;;;;;;;;;;6184000;23;20103;-58
2023/09/12 06:41:33;;;;;;;15.70;6.22;;;;;;;;;;6182931;23;20084;-58
2023/09/12 06:44:02;;;;;;;14.82;5.78;;;;;;;;;;6187410;23;20016;-58
2023/09/12 06:46:30;;;;;;;12.75;5.47;;;;;;;;;;6185578;23;20336;-57
2023/09/12 06:48:58;;;;;;;11.83;5.57;;;;;;;;;;6182467;23;20725;-58
2023/09/12 06:51:26;;;;;;;12.85;6.05;;;;;;;;;;6151914;23;20404;-58
2023/09/12 06:54:02;;;;;;;11.50;5.32;;;;;;;;;;6181118;23;20021;-58
2023/09/12 06:56:32;;;;;;;13.00;5.70;;;;;;;;;;6184490;23;20016;-58
2023/09/12 06:59:00;;;;;;;12.38;5.60;;;;;;;;;;6183929;23;20021;-58
2023/09/12 07:01:27;;;;;;;11.63;6.27;;;;;;;;;;6180766;23;20035;-57
2023/09/12 07:03:56;;;;;;;14.30;5.97;;;;;;;;;;6174769;23;20016;-58
2023/09/12 07:06:24;;;;;;;12.38;5.60;;;;;;;;;;6190763;23;20474;-58
2023/09/12 07:08:52;;;;;;;11.23;6.10;;;;;;;;;;6185123;23;20023;-58
2023/09/12 07:11:19;;;;;;;10.75;5.75;;;;;;;;;;6186600;23;20023;-58
2023/09/12 07:13:48;;;;;;;10.40;5.83;;;;;;;;;;6180786;23;20324;-58
2023/09/12 07:16:20;;;;;;;13.88;5.72;;;;;;;;;;6183621;23;20257;-58
2023/09/12 07:18:49;;;;;;;14.02;5.68;;;;;;;;;;6162026;23;20021;-57
2023/09/12 07:21:16;;;;;;;10.68;5.40;;;;;;;;;;6131801;23;20542;-59
2023/09/12 07:23:44;;;;;;;12.48;5.30;;;;;;;;;;6179899;23;20050;-58
2023/09/12 07:26:13;;;;;;;11.57;5.10;;;;;;;;;;6173495;23;20434;-57
2023/09/12 07:28:40;;;;;;;11.20;4.97;;;;;;;;;;6155026;23;20458;-58
2023/09/12 07:31:10;;;;;;;13.27;5.32;;;;;;;;;;6180746;23;20047;-58
2023/09/12 07:33:39;;;;;;;9.30;5.05;;;;;;;;;;6180659;23;20058;-59
2023/09/12 07:36:06;;;;;;;12.30;4.78;;;;;;;;;;6157956;23;20856;-58
2023/09/12 07:38:35;;;;;;;10.63;5.13;;;;;;;;;;6189069;23;20020;-58
2023/09/12 07:41:03;;;;;;;11.43;4.97;;;;;;;;;;6170556;23;20346;-58
2023/09/12 07:43:31;;;;;;;10.75;5.18;;;;;;;;;;6186996;23;20021;-58
2023/09/12 07:45:59;;;;;;;9.90;5.05;;;;;;;;;;6184882;23;20023;-59
2023/09/12 07:48:28;;;;;;;12.50;4.78;;;;;;;;;;6178862;23;20582;-59
2023/09/12 07:50:56;;;;;;;11.23;4.87;;;;;;;;;;6179726;23;20838;-58
2023/09/12 07:53:23;;;;;;;10.90;4.55;;;;;;;;;;6182707;23;20017;-58
2023/09/12 07:55:51;;;;;;;10.13;4.55;;;;;;;;;;6182349;23;20025;-58
2023/09/12 07:58:19;;;;;;;12.27;4.30;;;;;;;;;;6151110;23;20020;-58
2023/09/12 08:00:47;;;;;;;11.73;4.10;;;;;;;;;;6165032;23;20067;-59
2023/09/12 08:03:15;;;;;;;8.60;3.47;;;;;;;;;;6171661;23;20024;-59
2023/09/12 08:05:46;;;;;;;8.70;3.28;;;;;;;;;;6179310;23;20036;-58
2023/09/12 08:08:13;;;;;;;10.75;3.80;;;;;;;;;;6186805;23;20020;-58
2023/09/12 08:10:41;;;;;;;10.25;3.90;;;;;;;;;;6180927;23;20028;-59
2023/09/12 08:13:09;;;;;;;8.30;3.72;;;;;;;;;;6177094;23;20032;-59
2023/09/12 08:15:38;;;;;;;11.97;4.43;;;;;;;;;;6145600;23;20028;-59
2023/09/12 08:18:06;;;;;;;9.65;3.60;;;;;;;;;;6121565;23;20020;-58
2023/09/12 08:20:33;;;;;;;8.40;3.42;;;;;;;;;;6161886;23;20091;-58
2023/09/12 08:23:03;;;;;;;7.97;3.45;;;;;;;;;;6168668;23;20602;-55
2023/09/12 08:25:30;;;;;;;7.50;3.13;;;;;;;;;;6166847;23;20012;-59
2023/09/12 08:27:58;;;;;;;7.83;2.93;;;;;;;;;;6182424;23;20610;-58
2023/09/12 08:30:28;;;;;;;8.45;3.63;;;;;;;;;;6182286;23;20020;-58
2023/09/12 08:32:55;;;;;;;9.02;3.03;;;;;;;;;;6185938;23;20016;-58
2023/09/12 08:35:23;;;;;;;7.47;3.53;;;;;;;;;;6178939;23;20075;-58
2023/09/12 08:37:51;;;;;;;8.98;3.35;;;;;;;;;;6188657;23;20017;-59
2023/09/12 08:40:20;;;;;;;8.30;3.90;;;;;;;;;;6179426;23;20391;-58
2023/09/12 08:42:48;;;;;;;7.90;3.60;;;;;;;;;;6163436;23;20208;-58
2023/09/12 08:45:17;;;;;;;8.68;3.20;;;;;;;;;;6171247;23;20024;-58
2023/09/12 08:47:45;;;;;;;7.82;3.42;;;;;;;;;;6166479;23;20017;-58
2023/09/12 08:50:16;;;;;;;9.30;3.50;;;;;;;;;;6163242;23;20024;-59
2023/09/12 08:52:44;;;;;;;8.97;3.30;;;;;;;;;;6184838;23;20452;-59
2023/09/12 08:55:35;;;;;;;8.07;3.80;;;;;;;;;;6181648;23;20054;-58
2023/09/12 08:58:03;;;;;;;8.48;3.35;;;;;;;;;;6183445;23;20012;-58
2023/09/12 09:00:32;;;;;;;8.38;3.88;;;;;;;;;;6176186;23;20103;-58
2023/09/12 09:03:01;;;;;;;9.00;3.85;;;;;;;;;;6185777;23;20023;-58
2023/09/12 09:05:29;;;;;;;9.03;4.20;;;;;;;;;;6181555;23;20012;-58
2023/09/12 09:07:58;;;;;;;10.40;4.05;;;;;;;;;;6165324;23;20050;-58
2023/09/12 09:10:27;;;;;;;11.73;4.68;;;;;;;;;;6182870;23;20020;-58
2023/09/12 09:13:15;;;;;;;13.52;4.78;;;;;;;;;;6177629;23;20373;-58
2023/09/12 09:15:43;;;;;;;11.20;4.57;;;;;;;;;;6184851;23;20017;-59
2023/09/12 09:18:12;;;;;;;12.87;5.07;;;;;;;;;;6183837;23;20126;-58
2023/09/12 09:20:41;;;;;;;8.52;4.78;;;;;;;;;;6156453;23;20013;-58
2023/09/12 09:23:10;;;;;;;12.75;4.65;;;;;;;;;;6155395;23;20107;-58
2023/09/12 09:25:40;;;;;;;8.98;4.50;;;;;;;;;;6177876;23;20106;-58
2023/09/12 09:28:18;;;;;;;8.05;4.20;;;;;;;;;;6148150;23;20016;-59
2023/09/12 09:30:46;;;;;;;9.23;4.30;;;;;;;;;;6169490;23;20026;-59
2023/09/12 09:33:15;;;;;;;8.85;3.90;;;;;;;;;;6160160;23;20027;-58
2023/09/12 09:35:43;;;;;;;8.00;3.47;;;;;;;;;;6170219;23;20104;-58
2023/09/12 09:38:16;;;;;;;8.73;4.05;;;;;;;;;;6166874;23;20023;-59
2023/09/12 09:40:44;;;;;;;8.30;4.22;;;;;;;;;;6168916;23;20013;-58
2023/09/12 09:43:13;;;;;;;9.27;3.60;;;;;;;;;;6151013;23;20547;-58
2023/09/12 09:45:46;;;;;;;7.88;3.83;;;;;;;;;;6145935;23;20514;-58
2023/09/12 09:48:18;;;;;;;12.48;4.57;;;;;;;;;;6170911;23;20075;-58
2023/09/12 09:50:46;;;;;;;9.73;3.30;;;;;;;;;;6165556;23;20021;-58
2023/09/12 09:53:14;;;;;;;6.65;3.30;;;;;;;;;;6154409;23;20026;-59
2023/09/12 09:55:42;;;;;;;5.83;3.03;;;;;;;;;;6160831;23;20046;-58
2023/09/12 09:58:16;;;;;;;6.40;2.90;;;;;;;;;;6162625;23;20021;-58
2023/09/12 10:00:48;;;;;;;7.03;2.95;;;;;;;;;;6134620;23;20082;-58
2023/09/12 10:03:18;;;;;;;6.65;2.75;;;;;;;;;;6167728;23;20761;-59
2023/09/12 10:05:46;;;;;;;5.95;2.40;;;;;;;;;;6170176;23;20071;-58
2023/09/12 10:08:17;;;;;;;7.17;2.57;;;;;;;;;;6167831;23;20020;-58
2023/09/12 10:10:45;;;;;;;6.72;2.50;;;;;;;;;;6169914;23;20027;-59
2023/09/12 10:13:14;;;;;;;6.75;2.67;;;;;;;;;;6155621;23;20455;-59
2023/09/12 10:15:43;;;;;;;8.18;2.88;;;;;;;;;;6146195;23;20420;-59
2023/09/12 10:18:15;;;;;;;6.18;2.40;;;;;;;;;;6125004;23;20020;-58
2023/09/12 10:20:56;;;;;;;7.53;2.47;;;;;;;;;;6150060;23;20121;-59
2023/09/12 10:23:26;;;;;;;7.63;3.22;;;;;;;;;;6165715;23;20051;-58
2023/09/12 10:25:59;;;;;;;6.72;2.40;;;;;;;;;;6157838;23;20515;-59
2023/09/12 10:28:28;;;;;;;5.65;2.53;;;;;;;;;;6169950;23;20478;-59
2023/09/12 10:30:56;;;;;;;6.65;2.38;;;;;;;;;;6167362;23;20603;-59
2023/09/12 10:33:31;;;;;;;6.47;2.60;;;;;;;;;;6164256;23;20090;-58
2023/09/12 10:36:00;;;;;;;5.50;2.50;;;;;;;;;;6158188;23;20027;-58
2023/09/12 10:38:29;;;;;;;6.03;2.05;;;;;;;;;;6174338;23;20020;-59
2023/09/12 10:40:57;;;;;;;6.47;2.30;;;;;;;;;;6131985;23;20016;-59
2023/09/12 10:43:26;;;;;;;6.20;2.53;;;;;;;;;;6155362;23;20013;-58
2023/09/12 10:45:54;;;;;;;6.30;2.50;;;;;;;;;;6162152;23;20104;-59
2023/09/12 10:48:22;;;;;;;5.38;2.22;;;;;;;;;;6170928;23;20016;-59
2023/09/12 10:50:51;;;;;;;6.28;2.15;;;;;;;;;;6168024;23;20443;-59
2023/09/12 10:53:23;;;;;;;5.43;2.17;;;;;;;;;;6157920;23;20031;-58
2023/09/12 10:56:01;;;;;;;6.35;1.90;;;;;;;;;;6159002;23;20027;-59
2023/09/12 10:58:29;;;;;;;5.13;2.17;;;;;;;;;;6166908;23;20087;-59
2023/09/12 11:01:15;;;;;;;6.80;2.47;;;;;;;;;;6165440;23;20030;-58
2023/09/12 11:03:43;;;;;;;5.93;2.60;;;;;;;;;;6157715;23;20016;-59
2023/09/12 11:06:23;;;;;;;8.13;2.60;;;;;;;;;;6168758;23;20017;-62
2023/09/12 11:09:09;;;;;;;7.53;2.53;;;;;;;;;;6169468;23;20607;-58
2023/09/12 11:11:37;;;;;;;6.57;2.37;;;;;;;;;;6162227;23;20588;-58
2023/09/12 11:14:05;;;;;;;6.55;2.75;;;;;;;;;;6157363;23;20452;-59
2023/09/12 11:16:33;;;;;;;5.90;2.90;;;;;;;;;;6167847;23;20065;-58
2023/09/12 11:19:13;;;;;;;7.28;2.80;;;;;;;;;;6171408;23;20303;-59
2023/09/12 11:21:43;;;;;;;8.02;2.42;;;;;;;;;;6158114;23;20020;-59
2023/09/12 11:24:13;;;;;;;6.13;2.50;;;;;;;;;;6159467;23;20040;-59
2023/09/12 11:26:54;;;;;;;5.38;2.28;;;;;;;;;;6144485;23;20489;-58
2023/09/12 11:29:23;;;;;;;6.65;2.35;;;;;;;;;;6164981;23;20096;-57
2023/09/12 11:31:57;;;;;;;5.45;1.73;;;;;;;;;;6164467;23;20013;-58
2023/09/12 11:34:28;;;;;;;9.15;2.80;;;;;;;;;;6160151;23;20451;-58
2023/09/12 11:37:00;;;;;;;5.57;2.60;;;;;;;;;;6167187;23;20744;-58
2023/09/12 11:39:29;;;;;;;6.07;1.88;;;;;;;;;;6164262;23;20051;-58
2023/09/12 11:41:57;;;;;;;7.38;2.85;;;;;;;;;;6167508;23;20662;-58
2023/09/12 11:44:26;;;;;;;7.00;2.60;;;;;;;;;;6156914;23;20379;-58
2023/09/12 11:46:55;;;;;;;5.93;2.85;;;;;;;;;;6169595;23;20016;-59
2023/09/12 11:49:23;;;;;;;7.33;3.53;;;;;;;;;;6135133;23;20024;-58
2023/09/12 11:51:51;;;;;;;7.55;3.88;;;;;;;;;;6166076;23;20021;-58
2023/09/12 11:54:21;;;;;;;13.23;3.88;;;;;;;;;;6158266;23;20082;-58
2023/09/12 11:56:56;;;;;;;9.60;4.05;;;;;;;;;;6163512;23;20024;-58
2023/09/12 11:59:24;;;;;;;7.32;3.88;;;;;;;;;;6166693;23;20017;-58
2023/09/12 12:01:52;;;;;;;9.47;4.00;;;;;;;;;;6165306;23;20023;-58
2023/09/12 12:04:21;;;;;;;8.30;3.42;;;;;;;;;;6166528;23;20021;-58
2023/09/12 12:06:48;;;;;;;8.60;3.22;;;;;;;;;;6134424;23;20043;-58
2023/09/12 12:09:18;;;;;;;5.88;1.70;;;;;;;;;;6174297;23;20059;-58
2023/09/12 12:11:47;;;;;;;5.05;1.40;;;;;;;;;;6166749;23;20026;-59
2023/09/12 12:14:16;;;;;;;4.00;1.20;;;;;;;;;;6154050;23;20013;-58
2023/09/12 12:16:44;;;;;;;3.90;1.45;;;;;;;;;;6121987;23;20025;-59
2023/09/12 12:19:12;;;;;;;4.78;1.67;;;;;;;;;;6173187;23;20028;-58
2023/09/12 12:21:40;;;;;;;5.45;1.30;;;;;;;;;;6153193;23;20016;-57
2023/09/12 12:24:08;;;;;;;3.70;1.20;;;;;;;;;;6155537;23;20447;-58
2023/09/12 12:26:36;;;;;;;4.33;1.20;;;;;;;;;;6162017;23;20335;-58
2023/09/12 12:29:05;;;;;;;3.20;0.80;;;;;;;;;;6173417;23;20013;-57
2023/09/12 12:31:33;;;;;;;4.30;0.98;;;;;;;;;;6163106;23;20020;-59
2023/09/12 12:34:01;;;;;;;3.70;0.90;;;;;;;;;;6146826;23;20032;-58
2023/09/12 12:36:49;;;;;;;5.03;1.02;;;;;;;;;;6150902;23;20775;-58
2023/09/12 12:39:24;;;;;;;2.80;0.60;;;;;;;;;;6172100;23;20479;-57
2023/09/12 12:41:53;;;;;;;3.35;1.10;;;;;;;;;;6156952;23;20487;-58
2023/09/12 12:44:22;;;;;;;3.53;0.75;;;;;;;;;;6162610;23;20103;-58
2023/09/12 12:46:50;;;;;;;4.00;1.63;;;;;;;;;;6149424;23;20028;-56
2023/09/12 12:49:18;;;;;;;3.83;1.00;;;;;;;;;;6174157;23;20039;-58
2023/09/12 12:51:46;;;;;;;4.20;1.47;;;;;;;;;;6133946;23;20021;-58
2023/09/12 12:54:17;;;;;;;3.08;0.80;;;;;;;;;;6156124;23;20036;-58
2023/09/12 12:56:46;;;;;;;5.13;1.20;;;;;;;;;;6172646;23;20100;-58
2023/09/12 12:59:13;;;;;;;3.80;1.20;;;;;;;;;;6163840;23;20023;-58
2023/09/12 13:01:42;;;;;;;4.05;1.02;;;;;;;;;;6172764;23;20021;-56
2023/09/12 13:04:10;;;;;;;4.50;1.40;;;;;;;;;;6155145;23;20063;-58
2023/09/12 13:06:41;;;;;;;3.67;1.20;;;;;;;;;;6164309;23;20040;-57
2023/09/12 13:09:09;;;;;;;3.80;1.30;;;;;;;;;;6174437;23;20028;-58
2023/09/12 13:11:37;;;;;;;4.15;1.23;;;;;;;;;;6160361;23;20344;-59
2023/09/12 13:14:09;;;;;;;3.28;0.90;;;;;;;;;;6148021;23;20020;-56
2023/09/12 13:16:37;;;;;;;4.07;1.10;;;;;;;;;;6170949;23;20020;-58
2023/09/12 13:19:06;;;;;;;3.83;1.42;;;;;;;;;;6138748;23;20394;-57
2023/09/12 13:21:35;;;;;;;4.45;1.40;;;;;;;;;;6167347;23;20020;-58
2023/09/12 13:24:03;;;;;;;4.10;1.63;;;;;;;;;;6158231;23;20023;-56
2023/09/12 13:26:30;;;;;;;4.28;1.50;;;;;;;;;;6166690;23;20020;-58
2023/09/12 13:28:58;;;;;;;4.40;1.50;;;;;;;;;;6166609;23;20406;-58
2023/09/12 13:31:26;;;;;;;3.80;1.00;;;;;;;;;;6176199;23;20286;-56
2023/09/12 13:33:54;;;;;;;3.50;1.08;;;;;;;;;;6153824;23;20051;-58
2023/09/12 13:36:24;;;;;;;4.10;1.30;;;;;;;;;;6170862;23;20027;-57
2023/09/12 13:38:52;;;;;;;3.58;0.80;;;;;;;;;;6150695;23;20027;-58
2023/09/12 13:41:22;;;;;;;2.20;0.50;;;;;;;;;;6172282;23;20024;-58
2023/09/12 13:43:49;;;;;;;2.97;0.90;;;;;;;;;;6152590;23;20017;-58
2023/09/12 13:46:17;;;;;;;3.83;0.77;;;;;;;;;;6163609;23;20028;-57
2023/09/12 13:48:45;;;;;;;3.70;1.30;;;;;;;;;;6171662;23;20030;-58
2023/09/12 13:51:15;;;;;;;3.00;0.90;;;;;;;;;;6168180;23;20020;-56
2023/09/12 13:53:44;;;;;;;2.07;0.40;;;;;;;;;;6154607;23;20054;-58
2023/09/12 13:56:13;;;;;;;3.05;0.90;;;;;;;;;;6161917;23;20159;-58
2023/09/12 13:58:43;;;;;;;3.40;0.85;;;;;;;;;;6160592;23;20021;-58
2023/09/12 14:01:18;;;;;;;3.10;1.10;;;;;;;;;;6167455;23;20074;-59
2023/09/12 14:03:59;;;;;;;3.25;0.88;;;;;;;;;;6152823;23;20071;-57
2023/09/12 14:06:27;;;;;;;3.43;1.20;;;;;;;;;;6165334;23;20420;-58
2023/09/12 14:08:57;;;;;;;4.45;0.90;;;;;;;;;;6174031;23;20016;-57
2023/09/12 14:11:25;;;;;;;3.10;0.90;;;;;;;;;;6159712;23;20099;-57
2023/09/12 14:14:02;;;;;;;3.63;1.00;;;;;;;;;;6161233;23;20066;-56
2023/09/12 14:16:43;;;;;;;3.53;1.20;;;;;;;;;;6171981;23;20020;-57
2023/09/12 14:19:15;;;;;;;3.73;1.20;;;;;;;;;;6162518;23;20031;-58
2023/09/12 14:21:45;;;;;;;3.92;1.50;;;;;;;;;;6174915;23;20016;-57
2023/09/12 14:24:16;;;;;;;4.03;1.67;;;;;;;;;;6158175;23;20099;-58
2023/09/12 14:26:48;;;;;;;4.70;1.83;;;;;;;;;;6161095;23;20095;-57
2023/09/12 14:29:16;;;;;;;4.80;2.00;;;;;;;;;;6173263;23;20016;-58
2023/09/12 14:31:49;;;;;;;4.40;1.63;;;;;;;;;;6125543;23;20479;-57
2023/09/12 14:34:18;;;;;;;4.45;1.75;;;;;;;;;;6127419;23;20103;-58
2023/09/12 14:36:47;;;;;;;4.53;1.40;;;;;;;;;;6157184;23;20016;-58
2023/09/12 14:39:16;;;;;;;4.40;1.85;;;;;;;;;;6132714;23;20099;-57
2023/09/12 14:41:49;;;;;;;4.78;1.60;;;;;;;;;;6165361;23;20536;-58
2023/09/12 14:44:17;;;;;;;4.93;1.73;;;;;;;;;;6157023;23;20471;-58
2023/09/12 14:46:44;;;;;;;3.95;1.50;;;;;;;;;;6153846;23;20017;-58
2023/09/12 14:49:12;;;;;;;4.65;1.45;;;;;;;;;;6144968;23;20021;-57